createdAt,value
2022-11-22T00:00:08.858Z,3.082886
2022-11-22T00:01:18.638Z,3.072815
2022-11-22T00:02:27.483Z,3.082886
2022-11-22T00:03:36.116Z,3.072815
2022-11-22T00:04:44.916Z,3.072815
2022-11-22T00:05:52.633Z,3.072815
2022-11-22T00:07:02.452Z,3.082886
2022-11-22T00:08:11.125Z,3.072815
2022-11-22T00:09:18.871Z,3.072815
2022-11-22T00:10:28.654Z,3.082886
2022-11-22T00:11:38.369Z,3.082886
2022-11-22T00:12:48.152Z,3.082886
2022-11-22T00:13:57.910Z,3.113098
2022-11-22T00:15:05.622Z,3.103027
2022-11-22T00:16:15.399Z,3.103027
2022-11-22T00:17:25.113Z,3.103027
2022-11-22T00:18:33.793Z,3.113098
2022-11-22T00:19:43.540Z,3.113098
2022-11-22T00:20:52.249Z,3.103027
2022-11-22T00:22:01.006Z,3.113098
2022-11-22T00:23:10.745Z,3.13324
2022-11-22T00:24:19.482Z,3.113098
2022-11-22T00:25:29.281Z,3.143311
2022-11-22T00:26:38.102Z,3.143311
2022-11-22T00:27:46.753Z,3.163452
2022-11-22T00:28:56.526Z,3.193665
2022-11-22T00:30:05.263Z,3.193665
2022-11-22T00:31:15.175Z,3.193665
2022-11-22T00:32:24.908Z,3.193665
2022-11-22T00:33:34.658Z,3.193665
2022-11-22T00:34:44.381Z,3.193665
2022-11-22T00:35:54.129Z,3.183594
2022-11-22T00:37:03.962Z,3.183594
2022-11-22T00:38:12.725Z,3.193665
2022-11-22T00:39:22.428Z,3.193665
2022-11-22T00:40:32.173Z,3.193665
2022-11-22T00:41:39.872Z,3.183594
2022-11-22T00:42:48.649Z,3.183594
2022-11-22T00:43:58.268Z,3.183594
2022-11-22T00:45:07.009Z,3.183594
2022-11-22T00:46:16.750Z,3.183594
2022-11-22T00:47:25.428Z,3.183594
2022-11-22T00:48:34.154Z,3.213806
2022-11-22T00:49:43.910Z,3.223877
2022-11-22T00:50:53.649Z,3.213806
2022-11-22T00:52:03.378Z,3.213806
2022-11-22T00:53:13.112Z,3.223877
2022-11-22T00:54:20.800Z,3.213806
2022-11-22T00:55:30.516Z,3.254089
2022-11-22T00:56:40.266Z,3.254089
2022-11-22T00:57:48.996Z,3.26416
2022-11-22T00:58:58.788Z,3.233948
2022-11-22T01:00:08.604Z,3.254089
2022-11-22T01:01:18.480Z,3.294373
2022-11-22T01:02:28.062Z,3.294373
2022-11-22T01:03:35.797Z,3.344727
2022-11-22T01:04:45.518Z,3.364868
2022-11-22T01:05:55.274Z,3.364868
2022-11-22T01:07:04.044Z,3.395081
2022-11-22T01:08:13.729Z,3.395081
2022-11-22T01:09:23.397Z,3.415222
2022-11-22T01:10:33.126Z,3.405151
2022-11-22T01:11:42.910Z,3.445435
2022-11-22T01:12:50.576Z,3.465576
2022-11-22T01:14:00.275Z,3.546143
2022-11-22T01:15:10.053Z,3.586426
2022-11-22T01:16:19.772Z,3.677063
2022-11-22T01:17:29.618Z,3.838196
2022-11-22T01:18:39.318Z,3.918762
2022-11-22T01:19:47.997Z,3.979187
2022-11-22T01:20:57.779Z,4.01947
2022-11-22T01:22:07.516Z,4.079895
2022-11-22T01:23:17.276Z,4.130249
2022-11-22T01:24:27.030Z,4.170532
2022-11-22T01:25:35.779Z,4.200745
2022-11-22T01:26:45.551Z,4.230957
2022-11-22T01:27:54.272Z,4.261169
2022-11-22T01:29:03.022Z,4.261169
2022-11-22T01:30:12.749Z,4.281311
2022-11-22T01:31:21.482Z,4.301453
2022-11-22T01:32:31.176Z,4.351807
2022-11-22T01:33:39.929Z,4.351807
2022-11-22T01:34:48.808Z,4.402161
2022-11-22T01:35:58.535Z,4.382019
2022-11-22T01:37:06.311Z,4.412231
2022-11-22T01:38:15.029Z,4.412231
2022-11-22T01:39:23.784Z,4.412231
2022-11-22T01:40:33.573Z,4.402161
2022-11-22T01:41:43.284Z,4.382019
2022-11-22T01:42:53.028Z,4.382019
2022-11-22T01:44:01.791Z,4.382019
2022-11-22T01:45:11.532Z,4.402161
2022-11-22T01:46:20.282Z,4.422302
2022-11-22T01:47:29.015Z,4.422302
2022-11-22T01:48:38.683Z,4.442444
2022-11-22T01:49:47.387Z,4.412231
2022-11-22T01:50:57.062Z,4.412231
2022-11-22T01:52:06.816Z,4.412231
2022-11-22T01:53:16.528Z,4.402161
2022-11-22T01:54:26.316Z,4.402161
2022-11-22T01:55:35.115Z,4.402161
2022-11-22T01:56:43.786Z,4.402161
2022-11-22T01:57:53.562Z,4.382019
2022-11-22T01:59:02.270Z,4.371948
2022-11-22T02:00:11.976Z,4.371948
2022-11-22T02:01:21.727Z,4.351807
2022-11-22T02:02:30.386Z,4.371948
2022-11-22T02:03:40.201Z,4.382019
2022-11-22T02:04:49.912Z,4.412231
2022-11-22T02:05:59.688Z,4.422302
2022-11-22T02:07:09.478Z,4.442444
2022-11-22T02:08:18.170Z,4.442444
2022-11-22T02:09:28.198Z,4.442444
2022-11-22T02:10:37.676Z,4.452515
2022-11-22T02:11:46.386Z,4.452515
2022-11-22T02:12:56.174Z,4.452515
2022-11-22T02:14:05.933Z,4.482727
2022-11-22T02:15:14.673Z,4.502869
2022-11-22T02:16:24.422Z,4.52301
2022-11-22T02:17:32.215Z,4.533081
2022-11-22T02:18:41.877Z,4.553223
2022-11-22T02:19:51.520Z,4.533081
2022-11-22T02:21:01.190Z,4.553223
2022-11-22T02:22:10.856Z,4.533081
2022-11-22T02:23:18.516Z,4.553223
2022-11-22T02:24:28.173Z,4.563293
2022-11-22T02:25:37.843Z,4.583435
2022-11-22T02:26:47.546Z,4.583435
2022-11-22T02:27:57.197Z,4.633789
2022-11-22T02:29:06.866Z,4.633789
2022-11-22T02:30:16.532Z,4.633789
2022-11-22T02:31:27.250Z,4.674072
2022-11-22T02:32:35.920Z,4.734497
2022-11-22T02:33:45.609Z,4.77478
2022-11-22T02:34:56.249Z,4.835205
2022-11-22T02:36:04.917Z,4.865417
2022-11-22T02:37:14.588Z,4.89563
2022-11-22T02:38:23.271Z,4.89563
2022-11-22T02:39:33.070Z,4.925842
2022-11-22T02:40:41.586Z,4.915771
2022-11-22T02:41:50.292Z,4.935913
2022-11-22T02:42:59.941Z,4.956055
2022-11-22T02:44:09.752Z,4.935913
2022-11-22T02:50:27.304Z,4.986267
2022-11-22T02:51:35.945Z,5.036621
2022-11-22T02:52:44.597Z,5.046692
2022-11-22T02:53:54.258Z,5.107117
2022-11-22T02:55:02.950Z,5.107117
2022-11-22T02:56:10.629Z,5.097046
2022-11-22T02:57:20.311Z,5.107117
2022-11-22T02:58:28.975Z,5.117188
2022-11-22T02:59:38.659Z,5.117188
2022-11-22T03:00:48.399Z,5.117188
2022-11-22T03:02:00.096Z,5.117188
2022-11-22T03:03:05.763Z,5.137329
2022-11-22T03:04:15.420Z,5.137329
2022-11-22T03:05:25.107Z,5.1474
2022-11-22T03:06:34.824Z,5.167542
2022-11-22T03:07:44.524Z,5.177612
2022-11-22T03:08:56.274Z,5.177612
2022-11-22T03:10:02.775Z,5.177612
2022-11-22T03:11:10.427Z,5.197754
2022-11-22T03:12:20.111Z,5.197754
2022-11-22T03:13:29.832Z,5.207825
2022-11-22T03:14:38.604Z,5.227966
2022-11-22T03:15:48.351Z,5.207825
2022-11-22T03:16:57.937Z,5.227966
2022-11-22T03:18:05.600Z,5.197754
2022-11-22T03:19:15.269Z,5.197754
2022-11-22T03:20:22.934Z,5.167542
2022-11-22T03:21:32.603Z,5.167542
2022-11-22T03:22:41.317Z,5.137329
2022-11-22T03:23:48.977Z,5.137329
2022-11-22T03:24:58.651Z,5.117188
2022-11-22T03:26:07.296Z,5.107117
2022-11-22T03:27:15.947Z,5.1474
2022-11-22T03:28:25.634Z,5.197754
2022-11-22T03:29:33.327Z,5.248108
2022-11-22T03:30:43.002Z,5.328674
2022-11-22T03:31:51.654Z,5.439453
2022-11-22T03:32:59.371Z,5.540161
2022-11-22T03:34:09.030Z,5.640869
2022-11-22T03:35:17.751Z,5.65094
2022-11-22T03:36:27.455Z,5.711365
2022-11-22T03:37:37.145Z,5.791931
2022-11-22T03:38:45.842Z,5.862427
2022-11-22T03:39:55.479Z,5.912781
2022-11-22T03:41:04.154Z,6.013489
2022-11-22T03:42:15.634Z,6.083984
2022-11-22T03:43:23.480Z,6.144409
2022-11-22T03:44:31.134Z,6.194763
2022-11-22T03:45:40.811Z,6.194763
2022-11-22T03:46:50.645Z,6.235046
2022-11-22T03:47:58.314Z,6.255188
2022-11-22T03:49:07.978Z,6.27533
2022-11-22T03:50:16.631Z,6.255188
2022-11-22T03:51:24.281Z,6.204834
2022-11-22T03:52:33.983Z,6.164551
2022-11-22T03:53:42.637Z,6.124268
2022-11-22T03:54:52.331Z,6.094055
2022-11-22T03:56:01.986Z,6.073914
2022-11-22T03:57:11.679Z,6.043701
2022-11-22T03:58:21.344Z,5.983276
2022-11-22T03:59:31.216Z,5.942993
2022-11-22T04:00:38.672Z,5.912781
2022-11-22T04:01:47.398Z,5.892639
2022-11-22T04:02:55.033Z,5.862427
2022-11-22T04:04:04.716Z,5.842285
2022-11-22T04:05:14.378Z,5.832214
2022-11-22T04:06:22.026Z,5.832214
2022-11-22T04:07:31.729Z,5.822144
2022-11-22T04:08:40.453Z,5.822144
2022-11-22T04:09:49.104Z,5.842285
2022-11-22T04:10:58.801Z,5.832214
2022-11-22T04:12:08.436Z,5.862427
2022-11-22T04:13:18.122Z,5.832214
2022-11-22T04:14:27.802Z,5.822144
2022-11-22T04:15:36.489Z,5.791931
2022-11-22T04:16:46.137Z,5.791931
2022-11-22T04:17:54.803Z,5.791931
2022-11-22T04:19:03.457Z,5.802002
2022-11-22T04:20:13.139Z,5.791931
2022-11-22T04:21:21.831Z,5.791931
2022-11-22T04:22:31.495Z,5.802002
2022-11-22T04:23:41.216Z,5.802002
2022-11-22T04:24:49.919Z,5.802002
2022-11-22T04:25:59.584Z,5.802002
2022-11-22T04:27:08.346Z,5.802002
2022-11-22T04:28:15.960Z,5.822144
2022-11-22T04:29:26.641Z,5.802002
2022-11-22T04:30:35.301Z,5.822144
2022-11-22T04:31:43.977Z,5.802002
2022-11-22T04:32:53.669Z,5.822144
2022-11-22T04:34:01.348Z,5.791931
2022-11-22T04:35:11.004Z,5.802002
2022-11-22T04:36:18.661Z,5.802002
2022-11-22T04:37:28.316Z,5.791931
2022-11-22T04:38:37.004Z,5.761719
2022-11-22T04:39:46.664Z,5.802002
2022-11-22T04:40:56.324Z,5.822144
2022-11-22T04:42:05.006Z,5.832214
2022-11-22T04:43:14.728Z,5.842285
2022-11-22T04:44:24.385Z,5.842285
2022-11-22T04:45:33.053Z,5.822144
2022-11-22T04:46:42.730Z,5.802002
2022-11-22T04:47:51.396Z,5.832214
2022-11-22T04:49:00.052Z,5.842285
2022-11-22T04:50:09.739Z,5.872498
2022-11-22T04:51:18.397Z,5.90271
2022-11-22T04:52:27.060Z,5.932922
2022-11-22T04:53:36.745Z,5.932922
2022-11-22T04:54:46.405Z,5.973206
2022-11-22T04:55:56.194Z,6.013489
2022-11-22T04:57:04.858Z,5.993347
2022-11-22T04:58:12.563Z,6.053772
2022-11-22T04:59:22.269Z,6.083984
2022-11-22T05:00:31.918Z,6.114197
2022-11-22T05:01:41.701Z,6.144409
2022-11-22T05:02:51.401Z,6.174622
2022-11-22T05:04:00.091Z,6.174622
2022-11-22T05:05:09.743Z,6.194763
2022-11-22T05:06:18.434Z,6.194763
2022-11-22T05:07:26.160Z,6.204834
2022-11-22T05:08:34.821Z,6.204834
2022-11-22T05:09:42.485Z,6.224976
2022-11-22T05:10:52.153Z,6.235046
2022-11-22T05:12:01.853Z,6.235046
2022-11-22T05:13:09.543Z,6.235046
2022-11-22T05:14:19.232Z,6.235046
2022-11-22T05:15:27.920Z,6.255188
2022-11-22T05:16:35.560Z,6.255188
2022-11-22T05:17:45.224Z,6.255188
2022-11-22T05:18:53.928Z,6.255188
2022-11-22T05:20:02.673Z,6.255188
2022-11-22T05:21:12.363Z,6.265259
2022-11-22T05:22:20.033Z,6.255188
2022-11-22T05:23:29.689Z,6.27533
2022-11-22T05:24:38.382Z,6.27533
2022-11-22T05:25:46.049Z,6.27533
2022-11-22T05:26:55.702Z,6.27533
2022-11-22T05:28:03.438Z,6.27533
2022-11-22T05:29:12.092Z,6.265259
2022-11-22T05:30:21.777Z,6.27533
2022-11-22T05:31:30.465Z,6.265259
2022-11-22T05:32:40.104Z,6.265259
2022-11-22T05:33:49.764Z,6.265259
2022-11-22T05:34:57.413Z,6.265259
2022-11-22T05:36:07.158Z,6.27533
2022-11-22T05:37:15.849Z,6.295471
2022-11-22T05:38:24.502Z,6.295471
2022-11-22T05:39:34.159Z,6.295471
2022-11-22T05:40:42.822Z,6.295471
2022-11-22T05:41:52.573Z,6.305542
2022-11-22T05:43:02.243Z,6.295471
2022-11-22T05:44:09.909Z,6.305542
2022-11-22T05:45:19.591Z,6.305542
2022-11-22T05:46:27.262Z,6.305542
2022-11-22T05:47:37.027Z,6.325684
2022-11-22T05:48:46.667Z,6.325684
2022-11-22T05:49:55.357Z,6.325684
2022-11-22T05:51:05.016Z,6.325684
2022-11-22T05:52:13.681Z,6.325684
2022-11-22T05:53:21.475Z,6.325684
2022-11-22T05:54:31.132Z,6.325684
2022-11-22T05:55:39.786Z,6.325684
2022-11-22T05:56:48.446Z,6.295471
2022-11-22T05:57:58.112Z,6.305542
2022-11-22T05:59:05.915Z,6.325684
2022-11-22T06:00:15.648Z,6.345825
2022-11-22T06:01:24.296Z,6.305542
2022-11-22T06:02:32.008Z,6.325684
2022-11-22T06:03:41.629Z,6.345825
2022-11-22T06:04:51.280Z,6.325684
2022-11-22T06:05:58.933Z,6.345825
2022-11-22T06:07:10.326Z,6.345825
2022-11-22T06:08:17.263Z,6.355896
2022-11-22T06:09:27.212Z,6.355896
2022-11-22T06:10:35.605Z,6.355896
2022-11-22T06:11:43.267Z,6.355896
2022-11-22T06:12:52.926Z,6.355896
2022-11-22T06:14:01.574Z,6.345825
2022-11-22T06:15:10.253Z,6.345825
2022-11-22T06:16:20.912Z,6.345825
2022-11-22T06:17:28.568Z,6.355896
2022-11-22T06:18:38.226Z,6.376038
2022-11-22T06:19:46.908Z,6.355896
2022-11-22T06:20:55.549Z,6.355896
2022-11-22T06:22:05.254Z,6.355896
2022-11-22T06:23:13.907Z,6.345825
2022-11-22T06:24:22.567Z,6.355896
2022-11-22T06:25:32.223Z,6.376038
2022-11-22T06:26:41.891Z,6.376038
2022-11-22T06:27:51.586Z,6.376038
2022-11-22T06:28:59.231Z,6.386108
2022-11-22T06:30:07.890Z,6.386108
2022-11-22T06:31:17.568Z,6.386108
2022-11-22T06:32:26.215Z,6.376038
2022-11-22T06:33:35.914Z,6.355896
2022-11-22T06:34:44.564Z,6.376038
2022-11-22T06:35:54.271Z,6.376038
2022-11-22T06:37:03.911Z,6.376038
2022-11-22T06:38:13.575Z,6.376038
2022-11-22T06:39:23.264Z,6.376038
2022-11-22T06:40:32.942Z,6.355896
2022-11-22T06:41:40.590Z,6.376038
2022-11-22T06:42:50.265Z,6.386108
2022-11-22T06:43:58.051Z,6.376038
2022-11-22T06:45:06.707Z,6.376038
2022-11-22T06:46:16.372Z,6.40625
2022-11-22T06:47:24.038Z,6.40625
2022-11-22T06:48:33.695Z,6.446533
2022-11-22T06:49:42.351Z,6.436462
2022-11-22T06:50:50.051Z,6.416321
2022-11-22T06:51:59.748Z,6.436462
2022-11-22T06:53:21.232Z,6.456604
2022-11-22T06:54:20.106Z,6.476746
2022-11-22T06:55:49.406Z,6.456604
2022-11-22T06:56:40.596Z,6.446533
2022-11-22T06:57:50.298Z,6.436462
2022-11-22T06:58:59.983Z,6.416321
2022-11-22T07:00:07.632Z,6.436462
2022-11-22T07:01:17.398Z,6.416321
2022-11-22T07:02:26.112Z,6.436462
2022-11-22T07:03:35.812Z,6.416321
2022-11-22T07:05:02.585Z,6.446533
2022-11-22T07:05:56.127Z,6.436462
2022-11-22T07:07:05.881Z,6.436462
2022-11-22T07:08:15.607Z,6.446533
2022-11-22T07:09:24.216Z,6.446533
2022-11-22T07:10:33.885Z,6.446533
2022-11-22T07:11:41.545Z,6.446533
2022-11-22T07:12:51.260Z,6.446533
2022-11-22T07:14:06.817Z,6.446533
2022-11-22T07:15:10.577Z,6.446533
2022-11-22T07:16:20.274Z,6.446533
2022-11-22T07:17:28.932Z,6.436462
2022-11-22T07:18:37.594Z,6.436462
2022-11-22T07:19:47.268Z,6.436462
2022-11-22T07:20:55.024Z,6.436462
2022-11-22T07:22:05.682Z,6.436462
2022-11-22T07:23:15.388Z,6.446533
2022-11-22T07:24:24.011Z,6.446533
2022-11-22T07:25:32.717Z,6.446533
2022-11-22T07:26:41.382Z,6.446533
2022-11-22T07:27:50.052Z,6.446533
2022-11-22T07:28:59.726Z,6.436462
2022-11-22T07:30:08.398Z,6.446533
2022-11-22T07:31:17.167Z,6.40625
2022-11-22T07:32:26.838Z,6.436462
2022-11-22T07:33:34.503Z,6.436462
2022-11-22T07:34:44.179Z,6.436462
2022-11-22T07:35:52.848Z,6.436462
2022-11-22T07:37:04.854Z,6.40625
2022-11-22T07:38:10.301Z,6.376038
2022-11-22T07:39:18.974Z,6.386108
2022-11-22T07:40:27.647Z,6.376038
2022-11-22T07:41:37.269Z,6.376038
2022-11-22T07:42:44.951Z,6.386108
2022-11-22T07:43:55.589Z,6.40625
2022-11-22T07:45:04.257Z,6.40625
2022-11-22T07:46:12.929Z,6.386108
2022-11-22T07:47:23.132Z,6.386108
2022-11-22T07:48:30.295Z,6.40625
2022-11-22T07:49:38.958Z,6.40625
2022-11-22T07:50:48.626Z,6.40625
2022-11-22T07:51:57.268Z,6.40625
2022-11-22T07:53:06.917Z,6.40625
2022-11-22T07:54:16.154Z,6.40625
2022-11-22T07:55:25.931Z,6.416321
2022-11-22T07:56:35.557Z,6.40625
2022-11-22T07:57:44.207Z,6.386108
2022-11-22T07:58:52.896Z,6.40625
2022-11-22T08:00:02.647Z,6.416321
2022-11-22T08:01:10.361Z,6.40625
2022-11-22T08:02:19.971Z,6.40625
2022-11-22T08:03:29.419Z,6.386108
2022-11-22T08:04:36.295Z,6.386108
2022-11-22T08:05:46.108Z,6.386108
2022-11-22T08:06:54.754Z,6.376038
2022-11-22T08:08:03.411Z,6.355896
2022-11-22T08:09:13.080Z,6.386108
2022-11-22T08:10:20.785Z,6.376038
2022-11-22T08:11:30.582Z,6.386108
2022-11-22T08:12:40.133Z,6.376038
2022-11-22T08:13:49.784Z,6.386108
2022-11-22T08:14:59.471Z,6.376038
2022-11-22T08:16:07.127Z,6.386108
2022-11-22T08:17:15.835Z,6.376038
2022-11-22T08:18:25.915Z,6.386108
2022-11-22T08:19:37.021Z,6.386108
2022-11-22T08:20:46.687Z,6.40625
2022-11-22T08:21:58.559Z,6.386108
2022-11-22T08:23:05.065Z,6.40625
2022-11-22T08:24:14.739Z,6.40625
2022-11-22T08:25:22.391Z,6.40625
2022-11-22T08:26:32.058Z,6.40625
2022-11-22T08:27:41.858Z,6.436462
2022-11-22T08:28:51.440Z,6.436462
2022-11-22T08:30:01.098Z,6.416321
2022-11-22T08:31:10.758Z,6.436462
2022-11-22T08:32:20.457Z,6.436462
2022-11-22T08:33:30.130Z,6.456604
2022-11-22T08:34:38.404Z,6.456604
2022-11-22T08:35:48.469Z,6.456604
2022-11-22T08:36:57.142Z,6.456604
2022-11-22T08:38:05.811Z,6.486816
2022-11-22T08:39:15.484Z,6.506958
2022-11-22T08:40:23.174Z,6.476746
2022-11-22T08:41:32.864Z,6.506958
2022-11-22T08:42:42.500Z,6.506958
2022-11-22T08:43:49.279Z,6.517029
2022-11-22T08:44:58.797Z,6.53717
2022-11-22T08:46:06.492Z,6.53717
2022-11-22T08:47:15.141Z,6.557312
2022-11-22T08:48:24.807Z,6.53717
2022-11-22T08:49:34.514Z,6.506958
2022-11-22T08:50:44.169Z,6.506958
2022-11-22T08:51:52.856Z,6.476746
2022-11-22T08:53:01.554Z,6.476746
2022-11-22T08:54:11.240Z,6.476746
2022-11-22T08:55:18.948Z,6.456604
2022-11-22T08:56:27.604Z,6.446533
2022-11-22T08:57:37.293Z,6.476746
2022-11-22T08:58:45.025Z,6.446533
2022-11-22T08:59:54.730Z,6.476746
2022-11-22T09:01:04.365Z,6.476746
2022-11-22T09:02:11.918Z,6.486816
2022-11-22T09:03:21.666Z,6.486816
2022-11-22T09:04:31.318Z,6.506958
2022-11-22T09:10:22.793Z,6.517029
2022-11-22T09:11:30.376Z,6.517029
2022-11-22T09:12:40.033Z,6.53717
2022-11-22T09:13:47.691Z,6.53717
2022-11-22T09:14:57.502Z,6.517029
2022-11-22T09:16:07.058Z,6.506958
2022-11-22T09:17:18.014Z,6.506958
2022-11-22T09:18:24.357Z,6.517029
2022-11-22T09:19:34.175Z,6.506958
2022-11-22T09:20:43.878Z,6.517029
2022-11-22T09:21:53.548Z,6.53717
2022-11-22T09:23:01.211Z,6.557312
2022-11-22T09:24:09.866Z,6.567383
2022-11-22T09:25:19.531Z,6.587524
2022-11-22T09:26:29.299Z,6.587524
2022-11-22T09:27:39.967Z,6.617737
2022-11-22T09:28:47.630Z,6.627808
2022-11-22T09:29:56.297Z,6.637878
2022-11-22T09:31:06.082Z,6.637878
2022-11-22T09:32:15.663Z,6.65802
2022-11-22T09:33:24.327Z,6.668091
2022-11-22T09:34:34.036Z,6.688232
2022-11-22T09:35:42.683Z,6.698303
2022-11-22T09:36:52.391Z,6.738586
2022-11-22T09:38:02.089Z,6.738586
2022-11-22T09:39:09.773Z,6.748657
2022-11-22T09:40:19.513Z,6.698303
2022-11-22T09:41:27.102Z,6.688232
2022-11-22T09:42:35.775Z,6.668091
2022-11-22T09:43:45.464Z,6.698303
2022-11-22T09:44:53.120Z,6.748657
2022-11-22T09:46:02.794Z,6.77887
2022-11-22T09:47:11.582Z,6.819153
2022-11-22T09:48:20.163Z,6.839294
2022-11-22T09:49:30.091Z,6.869507
2022-11-22T09:50:37.528Z,6.77887
2022-11-22T09:51:46.219Z,6.748657
2022-11-22T09:52:55.942Z,6.77887
2022-11-22T09:54:04.612Z,6.768799
2022-11-22T09:55:14.289Z,6.768799
2022-11-22T09:56:23.944Z,6.77887
2022-11-22T09:57:31.588Z,6.78894
2022-11-22T09:58:41.285Z,6.809082
2022-11-22T09:59:48.961Z,6.78894
2022-11-22T10:00:57.665Z,6.768799
2022-11-22T10:02:18.003Z,6.768799
2022-11-22T10:03:18.072Z,6.77887
2022-11-22T10:04:27.607Z,6.78894
2022-11-22T10:05:36.292Z,6.809082
2022-11-22T10:06:45.007Z,6.839294
2022-11-22T10:07:54.749Z,6.839294
2022-11-22T10:09:03.357Z,6.849365
2022-11-22T10:10:13.018Z,6.849365
2022-11-22T10:11:21.728Z,6.869507
2022-11-22T10:12:30.573Z,6.869507
2022-11-22T10:13:40.245Z,6.839294
2022-11-22T10:14:48.975Z,6.819153
2022-11-22T10:15:57.631Z,6.819153
2022-11-22T10:17:07.315Z,6.77887
2022-11-22T10:18:16.019Z,6.718445
2022-11-22T10:19:24.800Z,6.688232
2022-11-22T10:20:34.350Z,6.688232
2022-11-22T10:21:44.011Z,6.668091
2022-11-22T10:22:53.702Z,6.637878
2022-11-22T10:24:02.384Z,6.627808
2022-11-22T10:25:11.057Z,6.617737
2022-11-22T10:26:20.723Z,6.567383
2022-11-22T10:27:29.424Z,6.557312
2022-11-22T10:28:38.070Z,6.517029
2022-11-22T10:29:45.817Z,6.506958
2022-11-22T10:30:54.489Z,6.517029
2022-11-22T10:32:04.160Z,6.486816
2022-11-22T10:33:12.816Z,6.486816
2022-11-22T10:34:22.487Z,6.486816
2022-11-22T10:35:31.339Z,6.506958
2022-11-22T10:36:40.896Z,6.53717
2022-11-22T10:37:50.601Z,6.506958
2022-11-22T10:38:59.294Z,6.557312
2022-11-22T10:40:07.965Z,6.486816
2022-11-22T10:41:17.641Z,6.446533
2022-11-22T10:42:25.326Z,6.446533
2022-11-22T10:43:34.993Z,6.456604
2022-11-22T10:44:43.690Z,6.456604
2022-11-22T10:45:51.382Z,6.456604
2022-11-22T10:47:01.088Z,6.456604
2022-11-22T10:48:09.753Z,6.456604
2022-11-22T10:49:18.410Z,6.456604
2022-11-22T10:50:28.091Z,6.446533
2022-11-22T10:51:36.878Z,6.456604
2022-11-22T10:52:46.491Z,6.506958
2022-11-22T10:53:58.938Z,6.517029
2022-11-22T10:55:04.848Z,6.506958
2022-11-22T10:56:14.527Z,6.506958
2022-11-22T10:57:24.210Z,6.517029
2022-11-22T10:58:32.922Z,6.517029
2022-11-22T10:59:42.591Z,6.567383
2022-11-22T11:00:51.344Z,6.617737
2022-11-22T11:02:00.945Z,6.637878
2022-11-22T11:03:10.632Z,6.637878
2022-11-22T11:04:18.323Z,6.668091
2022-11-22T11:05:28.005Z,6.698303
2022-11-22T11:06:56.762Z,6.698303
2022-11-22T11:07:46.473Z,6.65802
2022-11-22T11:10:12.965Z,6.587524
2022-11-22T11:11:18.346Z,6.597595
2022-11-22T11:12:27.021Z,6.567383
2022-11-22T11:13:34.675Z,6.587524
2022-11-22T11:14:44.346Z,6.567383
2022-11-22T11:15:55.674Z,6.587524
2022-11-22T11:17:00.822Z,6.637878
2022-11-22T11:18:10.499Z,6.688232
2022-11-22T11:19:20.239Z,6.718445
2022-11-22T11:20:29.908Z,6.738586
2022-11-22T11:21:39.602Z,6.738586
2022-11-22T11:23:16.815Z,6.688232
2022-11-22T11:23:59.149Z,6.668091
2022-11-22T11:25:07.715Z,6.688232
2022-11-22T11:26:17.385Z,6.668091
2022-11-22T11:27:27.141Z,6.688232
2022-11-22T11:28:35.738Z,6.738586
2022-11-22T11:29:45.407Z,6.698303
2022-11-22T11:30:55.086Z,6.637878
2022-11-22T11:32:02.738Z,6.668091
2022-11-22T11:33:12.429Z,6.688232
2022-11-22T11:34:20.094Z,6.688232
2022-11-22T11:35:29.790Z,6.698303
2022-11-22T11:36:38.455Z,6.668091
2022-11-22T11:37:46.101Z,6.668091
2022-11-22T11:38:55.828Z,6.718445
2022-11-22T11:40:04.608Z,6.738586
2022-11-22T11:41:13.147Z,6.768799
2022-11-22T11:42:22.820Z,6.77887
2022-11-22T11:43:30.484Z,6.688232
2022-11-22T11:44:40.164Z,6.668091
2022-11-22T11:45:49.867Z,6.718445
2022-11-22T11:46:58.546Z,6.718445
2022-11-22T11:48:07.214Z,6.748657
2022-11-22T11:49:14.905Z,6.718445
2022-11-22T11:50:24.461Z,6.688232
2022-11-22T11:51:33.256Z,6.718445
2022-11-22T11:52:42.043Z,6.65802
2022-11-22T11:53:51.728Z,6.617737
2022-11-22T11:55:01.400Z,6.476746
2022-11-22T11:56:10.206Z,6.40625
2022-11-22T11:57:19.775Z,6.416321
2022-11-22T11:58:28.458Z,6.40625
2022-11-22T11:59:37.182Z,6.436462
2022-11-22T12:00:46.868Z,6.376038
2022-11-22T12:01:55.637Z,6.386108
2022-11-22T12:03:04.259Z,6.386108
2022-11-22T12:04:13.923Z,6.416321
2022-11-22T12:05:21.616Z,6.386108
2022-11-22T12:06:31.302Z,6.376038
2022-11-22T12:07:40.063Z,6.345825
2022-11-22T12:08:48.703Z,6.305542
2022-11-22T12:09:58.389Z,6.295471
2022-11-22T12:11:07.082Z,6.295471
2022-11-22T12:12:17.008Z,6.255188
2022-11-22T12:13:26.564Z,6.255188
2022-11-22T12:14:55.837Z,6.224976
2022-11-22T12:15:44.996Z,6.255188
2022-11-22T12:16:54.679Z,6.204834
2022-11-22T12:18:03.363Z,6.174622
2022-11-22T12:19:13.110Z,6.164551
2022-11-22T12:20:21.771Z,6.114197
2022-11-22T12:21:31.439Z,6.02356
2022-11-22T12:22:49.716Z,6.02356
2022-11-22T12:23:51.770Z,5.993347
2022-11-22T12:25:30.801Z,5.973206
2022-11-22T12:26:13.101Z,5.973206
2022-11-22T12:27:21.912Z,5.973206
2022-11-22T12:28:31.482Z,5.973206
2022-11-22T12:29:40.171Z,5.973206
2022-11-22T12:30:47.888Z,5.973206
2022-11-22T12:31:57.560Z,5.973206
2022-11-22T12:33:07.208Z,5.993347
2022-11-22T12:34:15.955Z,6.043701
2022-11-22T12:35:25.735Z,6.083984
2022-11-22T12:36:34.429Z,6.114197
2022-11-22T12:37:43.096Z,6.094055
2022-11-22T12:38:51.772Z,6.114197
2022-11-22T12:39:59.425Z,6.124268
2022-11-22T12:41:09.109Z,6.144409
2022-11-22T12:42:21.646Z,6.164551
2022-11-22T12:43:25.568Z,6.174622
2022-11-22T12:44:35.136Z,6.164551
2022-11-22T12:45:43.811Z,6.164551
2022-11-22T12:46:53.502Z,6.124268
2022-11-22T12:48:03.160Z,6.164551
2022-11-22T12:49:11.824Z,6.164551
2022-11-22T12:50:21.536Z,6.144409
2022-11-22T12:51:29.231Z,6.114197
2022-11-22T12:52:38.912Z,6.124268
2022-11-22T12:53:48.617Z,6.124268
2022-11-22T12:54:58.314Z,6.043701
2022-11-22T12:56:08.026Z,5.973206
2022-11-22T12:57:17.677Z,5.942993
2022-11-22T12:58:25.329Z,5.993347
2022-11-22T12:59:35.419Z,6.053772
2022-11-22T13:00:43.949Z,6.114197
2022-11-22T13:01:53.802Z,6.083984
2022-11-22T13:03:01.399Z,6.083984
2022-11-22T13:04:11.069Z,6.094055
2022-11-22T13:05:21.020Z,6.083984
2022-11-22T13:06:28.735Z,6.043701
2022-11-22T13:07:38.461Z,5.932922
2022-11-22T13:08:52.928Z,5.862427
2022-11-22T13:09:58.731Z,5.90271
2022-11-22T13:11:08.585Z,5.973206
2022-11-22T13:12:17.237Z,5.973206
2022-11-22T13:13:26.927Z,5.932922
2022-11-22T13:14:36.612Z,5.973206
2022-11-22T13:15:45.472Z,6.02356
2022-11-22T13:16:55.025Z,6.043701
2022-11-22T13:18:04.684Z,6.053772
2022-11-22T13:19:12.371Z,6.043701
2022-11-22T13:20:22.119Z,6.02356
2022-11-22T13:21:29.797Z,5.993347
2022-11-22T13:22:38.574Z,6.013489
2022-11-22T13:23:48.286Z,6.073914
2022-11-22T13:24:56.986Z,6.083984
2022-11-22T13:26:10.408Z,6.083984
2022-11-22T13:27:16.400Z,6.144409
2022-11-22T13:28:26.128Z,6.164551
2022-11-22T13:29:35.839Z,6.194763
2022-11-22T13:30:45.568Z,6.194763
2022-11-22T13:31:55.364Z,6.194763
2022-11-22T13:33:04.949Z,6.164551
2022-11-22T13:34:14.665Z,6.204834
2022-11-22T13:35:24.404Z,6.224976
2022-11-22T13:36:34.107Z,6.235046
2022-11-22T13:37:41.741Z,6.224976
2022-11-22T13:38:51.421Z,6.255188
2022-11-22T13:40:00.118Z,6.235046
2022-11-22T13:41:09.832Z,6.235046
2022-11-22T13:42:17.504Z,6.255188
2022-11-22T13:43:26.170Z,6.255188
2022-11-22T13:44:35.871Z,6.255188